Time;durP1;ratioP1;P1;durP2;ratioP2;P2;SDS_P1;SDS_P2;PMS_P1;PMS_P2;Temp;Humidity;BMP_temperature;BMP_pressure;BME280_temperature;BME280_humidity;BME280_pressure;Samples;Min_cycle;Max_cycle;Signal;HPM_P1;HPM_P2
2023/03/09 00:00:56;;;;;;;27.02;15.85;;;4.90;99.90;;;;;;5053514;28;20705;-42
2023/03/09 00:03:22;;;;;;;24.38;15.98;;;4.90;99.90;;;;;;5053657;28;20191;-44
2023/03/09 00:05:57;;;;;;;23.58;15.50;;;4.70;99.90;;;;;;5052772;28;20613;-44
2023/03/09 00:08:23;;;;;;;26.27;15.10;;;4.60;99.90;;;;;;5053250;28;20650;-43
2023/03/09 00:10:51;;;;;;;24.70;14.18;;;4.50;99.90;;;;;;5053140;28;20245;-43
2023/03/09 00:13:21;;;;;;;20.05;13.43;;;4.70;99.90;;;;;;5052790;28;20202;-43
2023/03/09 00:15:50;;;;;;;22.98;14.30;;;4.80;99.90;;;;;;5053220;28;20246;-44
2023/03/09 00:18:17;;;;;;;22.63;14.48;;;4.80;99.90;;;;;;5053189;28;20686;-43
2023/03/09 00:20:42;;;;;;;18.52;12.77;;;4.80;99.90;;;;;;5053126;28;20179;-43
2023/03/09 00:23:08;;;;;;;21.98;12.90;;;4.80;99.90;;;;;;5051591;28;20216;-43
2023/03/09 00:25:34;;;;;;;21.70;14.23;;;4.80;99.90;;;;;;5053072;28;20258;-44
2023/03/09 00:27:59;;;;;;;19.92;13.18;;;3.20;99.90;;;;;;5053378;28;20163;-43
2023/03/09 00:30:25;;;;;;;19.98;13.45;;;4.80;99.90;;;;;;5052980;28;20169;-43
2023/03/09 00:32:53;;;;;;;18.73;13.07;;;4.70;99.90;;;;;;5052854;28;20246;-43
2023/03/09 00:35:18;;;;;;;19.88;13.73;;;5.00;99.90;;;;;;5052511;28;20644;-43
2023/03/09 00:37:46;;;;;;;20.65;12.00;;;4.90;99.90;;;;;;5052943;28;20178;-43
2023/03/09 00:40:14;;;;;;;19.92;13.25;;;4.70;99.90;;;;;;5052847;28;20702;-44
2023/03/09 00:42:42;;;;;;;18.73;13.57;;;4.60;99.90;;;;;;5052755;28;20696;-43
2023/03/09 00:45:08;;;;;;;18.55;13.25;;;4.50;99.90;;;;;;5052513;28;20186;-43
2023/03/09 00:47:33;;;;;;;19.65;12.93;;;4.60;99.90;;;;;;5052835;28;20179;-43
2023/03/09 00:49:59;;;;;;;21.20;12.82;;;4.50;99.90;;;;;;5052349;28;20167;-43
2023/03/09 00:52:24;;;;;;;20.35;12.98;;;4.40;99.90;;;;;;5052526;28;20239;-43
2023/03/09 00:54:53;;;;;;;18.10;13.02;;;4.50;99.90;;;;;;5052270;28;20209;-43
2023/03/09 00:57:20;;;;;;;19.90;14.57;;;4.50;99.90;;;;;;5052320;28;20651;-43
2023/03/09 00:59:46;;;;;;;19.08;13.15;;;4.60;99.90;;;;;;5052614;28;20225;-43
2023/03/09 01:02:12;;;;;;;20.15;14.00;;;4.40;99.90;;;;;;5052298;28;20252;-43
2023/03/09 01:04:37;;;;;;;21.40;14.55;;;4.40;99.90;;;;;;5051908;28;20651;-44
2023/03/09 01:07:03;;;;;;;20.90;14.82;;;4.40;99.90;;;;;;5052353;28;20226;-43
2023/03/09 01:09:29;;;;;;;21.48;14.90;;;4.30;99.90;;;;;;5052459;28;20210;-43
2023/03/09 01:11:54;;;;;;;24.23;15.60;;;4.50;99.90;;;;;;5051718;28;20237;-43
2023/03/09 01:14:20;;;;;;;21.15;14.27;;;4.50;99.90;;;;;;5052039;28;20179;-43
2023/03/09 01:16:46;;;;;;;23.80;15.13;;;4.30;99.90;;;;;;5052111;28;20217;-43
2023/03/09 01:19:11;;;;;;;21.60;13.25;;;4.60;99.90;;;;;;5052170;28;20182;-43
2023/03/09 01:21:37;;;;;;;21.60;14.98;;;4.40;99.90;;;;;;5051941;28;20635;-43
2023/03/09 01:24:02;;;;;;;20.77;13.60;;;4.40;99.90;;;;;;5051979;28;20186;-43
2023/03/09 01:26:28;;;;;;;22.33;14.90;;;4.40;99.90;;;;;;5051851;28;20189;-43
2023/03/09 01:28:54;;;;;;;23.65;15.05;;;4.40;99.90;;;;;;5051821;28;20656;-44
2023/03/09 01:31:19;;;;;;;23.37;15.47;;;4.50;99.90;;;;;;5051681;28;20697;-43
2023/03/09 01:33:47;;;;;;;23.02;14.90;;;4.50;99.90;;;;;;5051664;28;20459;-44
2023/03/09 01:36:16;;;;;;;21.83;14.93;;;4.40;99.90;;;;;;5051789;28;20185;-44
2023/03/09 01:38:43;;;;;;;23.50;14.80;;;4.60;99.90;;;;;;5051588;28;20167;-43
2023/03/09 01:41:13;;;;;;;22.08;14.63;;;4.50;99.90;;;;;;5051473;28;20167;-43
2023/03/09 01:43:41;;;;;;;23.08;15.32;;;4.80;99.90;;;;;;5051239;28;20657;-43
2023/03/09 01:46:33;;;;;;;25.48;15.23;;;4.80;99.90;;;;;;5051611;28;20233;-43
2023/03/09 01:49:01;;;;;;;21.75;14.20;;;4.60;99.90;;;;;;5051513;28;20669;-44
2023/03/09 01:51:35;;;;;;;29.73;16.50;;;4.50;99.90;;;;;;5051371;28;20260;-43
2023/03/09 01:54:03;;;;;;;25.42;15.75;;;4.60;99.90;;;;;;5051432;28;20546;-43
2023/03/09 01:56:30;;;;;;;29.08;17.80;;;4.50;99.90;;;;;;5051941;28;20167;-43
2023/03/09 01:58:57;;;;;;;33.42;17.90;;;4.50;99.90;;;;;;5051341;28;20228;-44
2023/03/09 02:01:23;;;;;;;34.45;18.67;;;4.50;99.90;;;;;;5050416;28;20179;-43
2023/03/09 02:03:55;;;;;;;40.53;21.77;;;4.20;99.90;;;;;;5051343;28;20165;-43
2023/03/09 02:06:21;;;;;;;39.22;21.42;;;4.20;99.90;;;;;;5051071;28;20264;-43
2023/03/09 02:09:14;;;;;;;39.20;19.63;;;4.30;99.90;;;;;;5051107;28;20202;-44
2023/03/09 02:11:40;;;;;;;37.50;20.33;;;4.20;99.90;;;;;;5038257;28;20237;-43
2023/03/09 02:14:07;;;;;;;46.47;23.13;;;4.10;99.90;;;;;;5046690;28;20178;-44
2023/03/09 02:16:32;;;;;;;42.42;23.33;;;6.60;99.90;;;;;;5051476;28;20519;-43
2023/03/09 02:18:58;;;;;;;39.47;21.13;;;4.00;99.90;;;;;;5050827;28;20175;-44
2023/03/09 02:21:49;;;;;;;35.28;19.95;;;4.10;99.90;;;;;;5050735;28;20185;-46
2023/03/09 02:24:34;;;;;;;32.08;18.33;;;4.20;99.90;;;;;;5050965;28;20584;-43
2023/03/09 02:27:08;;;;;;;36.03;18.42;;;4.10;99.90;;;;;;5051068;28;20220;-43
2023/03/09 02:29:34;;;;;;;35.70;19.48;;;4.10;99.90;;;;;;5050577;28;20182;-43
2023/03/09 02:32:00;;;;;;;34.78;19.40;;;4.10;99.90;;;;;;5051370;28;20244;-43
2023/03/09 02:34:25;;;;;;;38.10;19.65;;;4.10;99.90;;;;;;5051030;28;20655;-43
2023/03/09 02:36:51;;;;;;;34.53;17.50;;;3.90;99.90;;;;;;5050715;28;20170;-43
2023/03/09 02:39:30;;;;;;;34.53;19.60;;;3.90;99.90;;;;;;5050774;28;20177;-43
2023/03/09 02:41:58;;;;;;;35.35;19.30;;;4.20;99.90;;;;;;5050853;28;20280;-44
2023/03/09 02:44:25;;;;;;;36.50;20.17;;;4.00;99.90;;;;;;5050956;28;20642;-44
2023/03/09 02:46:51;;;;;;;33.47;18.58;;;4.20;99.90;;;;;;5050708;28;20190;-43
2023/03/09 02:49:17;;;;;;;35.20;19.10;;;4.20;99.90;;;;;;5050300;28;20174;-43
2023/03/09 02:51:43;;;;;;;33.67;19.05;;;4.20;99.90;;;;;;5050646;28;20210;-43
2023/03/09 02:54:09;;;;;;;34.92;19.20;;;4.20;99.90;;;;;;5049501;28;20253;-44
2023/03/09 02:56:34;;;;;;;35.75;19.60;;;4.10;99.90;;;;;;5050687;28;20229;-43
2023/03/09 02:59:02;;;;;;;35.17;19.75;;;4.30;99.90;;;;;;5050794;28;20576;-43
2023/03/09 03:01:28;;;;;;;37.80;20.65;;;4.30;99.90;;;;;;5050990;28;20216;-44
2023/03/09 03:03:54;;;;;;;38.45;20.73;;;4.30;99.90;;;;;;5050607;28;20166;-43
2023/03/09 03:06:19;;;;;;;36.50;19.70;;;4.00;99.90;;;;;;5050643;28;20225;-43
2023/03/09 03:08:45;;;;;;;38.15;20.33;;;4.00;99.90;;;;;;5050480;28;20631;-43
2023/03/09 03:11:11;;;;;;;42.50;20.88;;;4.10;99.90;;;;;;5051007;28;20531;-43
2023/03/09 03:13:36;;;;;;;37.55;20.88;;;4.30;99.90;;;;;;5054315;28;20206;-43
2023/03/09 03:16:03;;;;;;;38.00;19.30;;;4.30;99.90;;;;;;5054518;28;20660;-43
2023/03/09 03:18:29;;;;;;;37.53;18.63;;;4.10;99.90;;;;;;5054250;28;20250;-43
2023/03/09 03:20:55;;;;;;;38.08;19.45;;;4.30;99.90;;;;;;5054298;28;20193;-44
2023/03/09 03:23:20;;;;;;;34.58;19.17;;;4.30;99.90;;;;;;5054172;28;20270;-44
2023/03/09 03:25:46;;;;;;;39.47;20.40;;;4.00;99.90;;;;;;5052634;28;20259;-43
2023/03/09 03:28:12;;;;;;;46.78;22.63;;;4.10;99.90;;;;;;5054288;28;20199;-43
2023/03/09 03:30:37;;;;;;;40.50;19.52;;;4.20;99.90;;;;;;5053934;28;20167;-43
2023/03/09 03:33:03;;;;;;;40.15;19.75;;;4.10;99.90;;;;;;5054267;28;20216;-43
2023/03/09 03:35:28;;;;;;;42.70;21.52;;;4.20;99.90;;;;;;5054142;28;20205;-43
2023/03/09 03:37:54;;;;;;;44.60;20.35;;;4.20;99.90;;;;;;5053545;28;20174;-44
2023/03/09 03:40:20;;;;;;;43.88;21.08;;;4.20;99.90;;;;;;5053934;28;20220;-43
2023/03/09 03:42:46;;;;;;;40.25;20.42;;;4.30;99.90;;;;;;5054209;28;20661;-43
2023/03/09 03:45:11;;;;;;;50.83;22.52;;;4.40;99.90;;;;;;5053778;28;20281;-43
2023/03/09 03:47:37;;;;;;;45.38;21.60;;;4.30;99.90;;;;;;5053639;28;20178;-44
2023/03/09 03:50:03;;;;;;;44.05;21.48;;;4.20;99.90;;;;;;5052944;28;20175;-43
2023/03/09 03:52:29;;;;;;;50.30;22.08;;;4.10;99.90;;;;;;5053970;28;20199;-43
2023/03/09 03:54:54;;;;;;;44.63;21.40;;;4.10;99.90;;;;;;5053865;28;20170;-43
2023/03/09 03:57:22;;;;;;;45.45;22.10;;;4.10;99.90;;;;;;5053455;28;20304;-43
2023/03/09 03:59:48;;;;;;;40.67;20.67;;;4.30;99.90;;;;;;5053744;28;20182;-44
2023/03/09 04:02:14;;;;;;;44.78;22.60;;;4.40;99.90;;;;;;5053534;28;20287;-43
2023/03/09 04:04:39;;;;;;;47.67;22.05;;;4.20;99.90;;;;;;5052980;28;20181;-43
2023/03/09 04:07:05;;;;;;;46.55;22.13;;;4.40;99.90;;;;;;5052996;28;20219;-43
2023/03/09 04:09:30;;;;;;;46.17;21.60;;;4.20;99.90;;;;;;5053687;28;20229;-43
2023/03/09 04:11:56;;;;;;;53.10;22.85;;;4.30;99.90;;;;;;5053291;28;20193;-43
2023/03/09 04:14:21;;;;;;;58.00;22.75;;;4.30;99.90;;;;;;5053269;28;20178;-43
2023/03/09 04:16:47;;;;;;;51.72;23.50;;;4.20;99.90;;;;;;5053065;28;20194;-43
2023/03/09 04:19:13;;;;;;;47.65;22.48;;;4.20;99.90;;;;;;5053159;28;20182;-43
2023/03/09 04:21:38;;;;;;;50.58;21.80;;;4.30;99.90;;;;;;5053812;28;20171;-43
2023/03/09 04:24:04;;;;;;;49.80;22.90;;;4.00;99.90;;;;;;5052937;28;20166;-43
2023/03/09 04:26:30;;;;;;;52.58;21.83;;;4.30;99.90;;;;;;5053527;28;20178;-44
2023/03/09 04:28:55;;;;;;;44.35;20.83;;;4.10;99.90;;;;;;5053496;28;20170;-43
2023/03/09 04:31:21;;;;;;;50.13;21.13;;;4.30;99.90;;;;;;5053355;28;20528;-43
2023/03/09 04:33:46;;;;;;;49.78;22.25;;;4.30;99.90;;;;;;5053373;28;20540;-43
2023/03/09 04:36:12;;;;;;;50.20;20.45;;;4.20;99.90;;;;;;5052822;28;20336;-43
2023/03/09 04:38:38;;;;;;;43.60;20.52;;;4.00;99.90;;;;;;5052757;28;20206;-43
2023/03/09 04:41:04;;;;;;;40.28;18.98;;;4.20;99.90;;;;;;5052901;28;20162;-43
2023/03/09 04:43:29;;;;;;;44.33;20.45;;;4.00;99.90;;;;;;5053106;28;20541;-45
2023/03/09 04:45:55;;;;;;;44.63;20.20;;;4.20;99.90;;;;;;5052484;28;20712;-44
2023/03/09 04:48:20;;;;;;;46.00;19.67;;;4.00;99.90;;;;;;5052501;28;20179;-43
2023/03/09 04:50:46;;;;;;;47.42;20.50;;;4.20;99.90;;;;;;5052569;28;20174;-43
2023/03/09 04:53:11;;;;;;;44.58;21.27;;;4.30;99.90;;;;;;5052466;28;20214;-44
2023/03/09 04:55:37;;;;;;;38.67;18.88;;;4.10;99.90;;;;;;5052185;28;20162;-43
2023/03/09 04:58:03;;;;;;;43.75;18.85;;;4.20;99.90;;;;;;5053060;28;20205;-43
2023/03/09 05:00:32;;;;;;;40.97;19.58;;;4.00;99.90;;;;;;5052537;28;20805;-44
2023/03/09 05:02:58;;;;;;;35.00;17.08;;;4.10;99.90;;;;;;5052103;28;20524;-43
2023/03/09 05:05:23;;;;;;;39.38;17.80;;;4.10;99.90;;;;;;5052252;28;20223;-43
2023/03/09 05:07:49;;;;;;;39.15;18.63;;;4.00;99.90;;;;;;5051976;28;20183;-44
2023/03/09 05:10:14;;;;;;;37.63;17.65;;;4.10;99.90;;;;;;5052241;28;20170;-43
2023/03/09 05:12:40;;;;;;;40.58;18.27;;;4.10;99.90;;;;;;5052022;28;20194;-43
2023/03/09 05:15:06;;;;;;;38.47;18.42;;;4.30;99.90;;;;;;5051909;28;20175;-43
2023/03/09 05:17:32;;;;;;;35.92;17.75;;;4.20;99.90;;;;;;5052070;28;20638;-43
2023/03/09 05:19:58;;;;;;;33.33;17.55;;;4.20;99.90;;;;;;5052656;28;20202;-43
2023/03/09 05:22:24;;;;;;;39.42;18.17;;;4.10;99.90;;;;;;5052018;28;20194;-43
2023/03/09 05:24:49;;;;;;;39.17;18.48;;;4.10;99.90;;;;;;5051602;28;20189;-44
2023/03/09 05:27:15;;;;;;;39.60;18.40;;;4.20;99.90;;;;;;5051861;28;20254;-43
2023/03/09 05:29:41;;;;;;;35.45;16.55;;;4.20;99.90;;;;;;5052029;28;20175;-43
2023/03/09 05:32:07;;;;;;;38.17;17.30;;;4.30;99.90;;;;;;5051691;28;20198;-43
2023/03/09 05:34:33;;;;;;;36.67;17.95;;;4.30;99.90;;;;;;5051047;28;20642;-43
2023/03/09 05:36:59;;;;;;;35.95;18.13;;;4.40;99.90;;;;;;5051568;28;20249;-44
2023/03/09 05:39:25;;;;;;;36.08;18.40;;;4.40;99.90;;;;;;5050878;28;20170;-44
2023/03/09 05:41:50;;;;;;;35.60;17.83;;;4.20;99.90;;;;;;5051351;28;20639;-44
2023/03/09 05:44:16;;;;;;;38.22;17.88;;;4.20;99.90;;;;;;5051261;28;20177;-49
2023/03/09 05:46:41;;;;;;;35.38;17.65;;;4.20;99.90;;;;;;5051268;28;20171;-51
2023/03/09 05:49:07;;;;;;;36.67;18.05;;;4.40;99.90;;;;;;5050978;28;20175;-45
2023/03/09 05:51:33;;;;;;;34.33;16.55;;;4.20;99.90;;;;;;5051179;28;20170;-49
2023/03/09 05:53:58;;;;;;;30.05;16.25;;;4.30;99.90;;;;;;5051701;28;20175;-52
2023/03/09 05:56:24;;;;;;;33.13;15.88;;;4.30;99.90;;;;;;5051395;28;20523;-52
2023/03/09 05:58:51;;;;;;;33.60;16.60;;;4.30;99.90;;;;;;5050969;28;20253;-51
2023/03/09 06:01:22;;;;;;;34.28;15.88;;;4.40;99.90;;;;;;5049899;28;20535;-49
2023/03/09 06:03:48;;;;;;;33.00;16.02;;;4.30;99.90;;;;;;5051277;28;20217;-45
2023/03/09 06:06:15;;;;;;;34.63;16.83;;;4.40;99.90;;;;;;5051116;28;20229;-50
2023/03/09 06:08:40;;;;;;;31.73;15.85;;;4.30;99.90;;;;;;5050906;28;20246;-49
2023/03/09 06:11:06;;;;;;;30.35;14.60;;;4.20;99.90;;;;;;5051021;28;20253;-47
2023/03/09 06:13:32;;;;;;;27.67;15.25;;;4.00;99.90;;;;;;5051355;28;20234;-50
2023/03/09 06:15:57;;;;;;;27.88;14.20;;;4.00;99.90;;;;;;5050170;28;20208;-48
2023/03/09 06:18:23;;;;;;;29.63;16.15;;;4.10;99.90;;;;;;5050884;28;20167;-52
2023/03/09 06:20:49;;;;;;;29.33;15.80;;;4.30;99.90;;;;;;5050807;28;20178;-50
2023/03/09 06:23:14;;;;;;;40.40;17.65;;;4.10;99.90;;;;;;5050888;28;20250;-50
2023/03/09 06:25:40;;;;;;;32.00;15.77;;;4.00;99.90;;;;;;5051355;28;20171;-49
2023/03/09 06:28:06;;;;;;;30.90;16.83;;;4.30;99.90;;;;;;5051213;28;20494;-48
2023/03/09 06:30:32;;;;;;;28.42;14.52;;;4.20;99.90;;;;;;5051037;28;20166;-48
2023/03/09 06:32:58;;;;;;;35.17;16.63;;;3.10;99.90;;;;;;5051160;28;20216;-45
2023/03/09 06:35:24;;;;;;;31.77;15.40;;;4.00;99.90;;;;;;5050572;28;20639;-49
2023/03/09 06:37:50;;;;;;;33.08;15.98;;;3.90;99.90;;;;;;5050614;28;20186;-52
2023/03/09 06:40:16;;;;;;;28.67;15.65;;;4.00;99.90;;;;;;5048943;28;20175;-46
2023/03/09 06:42:42;;;;;;;24.02;14.13;;;4.00;99.90;;;;;;5050897;28;20642;-48
2023/03/09 06:45:08;;;;;;;27.92;14.23;;;4.00;99.90;;;;;;5050372;28;20186;-45
2023/03/09 06:47:34;;;;;;;28.95;15.05;;;4.00;99.90;;;;;;5053344;28;20249;-43
2023/03/09 06:49:59;;;;;;;24.80;13.20;;;4.00;99.90;;;;;;5055541;28;20708;-44
2023/03/09 06:52:25;;;;;;;25.83;13.68;;;4.10;99.90;;;;;;5054533;28;20220;-45
2023/03/09 06:54:51;;;;;;;26.40;15.05;;;4.10;99.90;;;;;;5054604;28;20190;-45
2023/03/09 06:57:17;;;;;;;27.75;15.18;;;4.10;99.90;;;;;;5054472;28;20647;-52
2023/03/09 06:59:43;;;;;;;25.30;14.48;;;4.30;99.90;;;;;;5054724;28;20167;-49
2023/03/09 07:02:12;;;;;;;28.95;15.35;;;4.20;99.90;;;;;;5054714;28;20165;-45
2023/03/09 07:04:37;;;;;;;26.63;14.07;;;4.30;99.90;;;;;;5054299;28;20189;-43
2023/03/09 07:07:03;;;;;;;24.27;14.77;;;4.40;99.90;;;;;;5054275;28;20218;-45
2023/03/09 07:09:31;;;;;;;26.75;14.50;;;4.50;99.90;;;;;;5055222;28;20174;-48
2023/03/09 07:11:57;;;;;;;36.55;18.58;;;4.50;99.90;;;;;;5054740;28;20198;-46
2023/03/09 07:14:23;;;;;;;29.60;15.73;;;4.50;99.90;;;;;;5054278;28;20521;-50
2023/03/09 07:16:53;;;;;;;28.27;16.00;;;4.60;99.90;;;;;;5054305;28;20597;-50
2023/03/09 07:19:18;;;;;;;30.63;16.02;;;4.70;99.90;;;;;;5053972;28;20170;-52
2023/03/09 07:21:44;;;;;;;30.05;17.48;;;4.50;99.90;;;;;;5053970;28;20171;-53
2023/03/09 07:24:09;;;;;;;24.08;14.98;;;4.80;99.90;;;;;;5053798;28;20223;-52
2023/03/09 07:26:35;;;;;;;24.90;15.00;;;4.80;99.90;;;;;;5054306;28;20278;-52
2023/03/09 07:29:00;;;;;;;26.55;14.63;;;4.70;99.90;;;;;;5054668;28;20170;-48
2023/03/09 07:31:28;;;;;;;27.27;14.30;;;4.90;99.90;;;;;;5053907;28;20622;-52
2023/03/09 07:33:54;;;;;;;27.05;15.43;;;4.90;99.90;;;;;;5054032;28;20198;-49
2023/03/09 07:36:20;;;;;;;25.15;15.88;;;4.90;99.90;;;;;;5054047;28;20436;-43
2023/03/09 07:38:47;;;;;;;27.35;15.30;;;4.90;99.90;;;;;;5054146;28;20171;-46
2023/03/09 07:41:13;;;;;;;25.17;14.65;;;4.80;99.90;;;;;;5053543;28;20170;-44
2023/03/09 07:43:43;;;;;;;24.40;14.23;;;5.00;99.90;;;;;;5053767;28;20241;-44
2023/03/09 07:46:11;;;;;;;24.70;14.65;;;5.10;99.90;;;;;;5053897;28;20155;-43
2023/03/09 07:48:39;;;;;;;22.17;12.90;;;4.90;99.90;;;;;;5053777;28;20189;-43
2023/03/09 07:51:06;;;;;;;22.05;13.05;;;5.00;99.90;;;;;;5053447;28;20240;-44
2023/03/09 07:53:36;;;;;;;21.52;13.25;;;5.10;99.90;;;;;;5054034;28;20209;-43
2023/03/09 07:56:03;;;;;;;22.25;13.52;;;5.00;99.90;;;;;;5054055;28;20186;-43
2023/03/09 07:58:33;;;;;;;21.85;13.73;;;5.10;99.90;;;;;;5053280;28;20171;-44
2023/03/09 08:00:59;;;;;;;19.63;12.45;;;5.10;99.90;;;;;;5053702;28;20174;-44
2023/03/09 08:03:26;;;;;;;21.88;12.82;;;5.00;99.90;;;;;;5053624;28;20213;-43
2023/03/09 08:05:55;;;;;;;19.73;11.95;;;5.20;99.90;;;;;;5053324;28;20222;-43
2023/03/09 08:08:22;;;;;;;19.20;11.65;;;5.10;99.90;;;;;;5053351;28;20258;-44
2023/03/09 08:10:50;;;;;;;17.25;11.23;;;5.30;99.90;;;;;;5053366;28;20178;-43
2023/03/09 08:13:16;;;;;;;19.30;12.23;;;5.30;99.90;;;;;;5053455;28;20210;-43
2023/03/09 08:15:41;;;;;;;21.67;13.30;;;5.20;99.90;;;;;;5053624;28;20175;-43
2023/03/09 08:18:07;;;;;;;25.88;13.48;;;5.20;99.90;;;;;;5053302;28;20194;-44
2023/03/09 08:20:33;;;;;;;19.90;12.10;;;5.20;99.90;;;;;;5052943;28;20244;-46
2023/03/09 08:22:58;;;;;;;21.50;13.02;;;5.50;99.90;;;;;;5053693;28;20167;-43
2023/03/09 08:25:24;;;;;;;21.25;13.00;;;5.30;99.90;;;;;;5053127;28;20173;-44
2023/03/09 08:27:51;;;;;;;21.70;13.38;;;5.30;99.90;;;;;;5051976;28;20206;-43
2023/03/09 08:30:20;;;;;;;20.45;12.77;;;5.60;99.90;;;;;;5051587;28;20213;-43
2023/03/09 08:32:47;;;;;;;25.63;13.48;;;5.50;99.90;;;;;;5053276;28;20205;-44
2023/03/09 08:35:19;;;;;;;23.65;12.82;;;5.40;99.90;;;;;;5053384;28;20521;-52
2023/03/09 08:37:45;;;;;;;21.13;12.73;;;5.50;99.90;;;;;;5052740;28;20174;-43
2023/03/09 08:40:11;;;;;;;16.80;11.15;;;5.50;99.90;;;;;;5052871;28;20228;-43
2023/03/09 08:42:37;;;;;;;18.23;11.90;;;5.50;99.90;;;;;;5053017;28;20296;-44
2023/03/09 08:45:04;;;;;;;16.77;9.95;;;5.40;99.90;;;;;;5052889;28;20188;-45
2023/03/09 08:47:30;;;;;;;15.80;10.25;;;5.60;99.90;;;;;;5052833;28;20174;-44
2023/03/09 08:49:56;;;;;;;18.10;10.57;;;5.40;99.90;;;;;;5052432;28;20174;-43
2023/03/09 08:52:21;;;;;;;19.65;10.15;;;5.50;99.90;;;;;;5052576;28;20208;-44
2023/03/09 08:54:49;;;;;;;17.65;10.93;;;5.60;99.90;;;;;;5052742;28;20170;-43
2023/03/09 08:57:16;;;;;;;18.52;11.38;;;5.80;99.90;;;;;;5052483;28;20171;-43
2023/03/09 08:59:41;;;;;;;17.13;10.93;;;5.70;99.90;;;;;;5052443;28;20216;-44
2023/03/09 09:02:14;;;;;;;18.50;11.15;;;5.70;99.90;;;;;;5052808;28;20158;-44
2023/03/09 09:04:44;;;;;;;16.85;11.02;;;5.60;99.90;;;;;;5052825;28;20182;-44
2023/03/09 09:07:10;;;;;;;15.98;10.48;;;5.40;99.90;;;;;;5051906;28;20253;-44
2023/03/09 09:09:37;;;;;;;17.42;10.07;;;5.50;99.90;;;;;;5051938;28;20174;-43
2023/03/09 09:12:03;;;;;;;17.63;10.32;;;5.60;99.90;;;;;;5051983;28;20204;-43
2023/03/09 09:14:28;;;;;;;13.93;9.57;;;5.60;99.90;;;;;;5052638;28;20534;-44
2023/03/09 09:16:55;;;;;;;15.45;10.48;;;5.60;99.90;;;;;;5052272;28;20281;-43
2023/03/09 09:19:22;;;;;;;14.38;9.90;;;5.50;99.90;;;;;;5051870;28;20666;-43
2023/03/09 09:21:48;;;;;;;15.73;9.23;;;5.60;99.90;;;;;;5052240;28;20190;-43
2023/03/09 09:24:14;;;;;;;13.77;8.63;;;5.50;99.90;;;;;;5052034;28;20228;-43
2023/03/09 09:26:40;;;;;;;14.75;9.02;;;5.50;99.90;;;;;;5051912;28;20586;-44
2023/03/09 09:29:06;;;;;;;13.45;8.57;;;5.70;99.90;;;;;;5051679;28;20624;-44
2023/03/09 09:31:33;;;;;;;13.70;7.45;;;5.90;99.90;;;;;;5050609;28;20181;-43
2023/03/09 09:33:59;;;;;;;10.40;7.53;;;5.80;99.90;;;;;;5052049;28;20289;-43
2023/03/09 09:36:25;;;;;;;9.45;7.45;;;5.90;99.90;;;;;;5051735;28;20159;-44
2023/03/09 09:38:53;;;;;;;11.75;7.97;;;6.10;99.90;;;;;;5050284;28;20171;-44
2023/03/09 09:41:51;;;;;;;10.88;7.55;;;6.10;99.90;;;;;;5051679;28;20221;-45
2023/03/09 09:44:41;;;;;;;12.32;8.63;;;6.30;99.90;;;;;;5051578;28;20163;-43
2023/03/09 09:47:12;;;;;;;9.10;6.95;;;6.20;99.90;;;;;;5051302;28;20177;-45
2023/03/09 09:49:45;;;;;;;10.75;7.78;;;6.40;99.90;;;;;;5051188;28;20214;-43
2023/03/09 09:52:49;;;;;;;10.73;7.22;;;6.20;99.90;;;;;;5051268;28;20650;-44
2023/03/09 09:55:29;;;;;;;9.77;6.60;;;6.20;99.90;;;;;;5051450;28;20171;-43
2023/03/09 09:58:32;;;;;;;11.15;7.30;;;6.10;99.90;;;;;;5051383;28;20163;-43
2023/03/09 10:01:04;;;;;;;10.38;7.80;;;6.30;99.90;;;;;;5051957;28;20217;-43
2023/03/09 10:03:37;;;;;;;11.15;7.70;;;6.50;99.90;;;;;;5051871;28;20166;-52
2023/03/09 10:06:23;;;;;;;9.98;6.80;;;6.60;99.90;;;;;;5051049;28;20218;-49
2023/03/09 10:08:59;;;;;;;11.35;7.18;;;6.70;99.90;;;;;;5050894;28;20650;-52
2023/03/09 10:11:30;;;;;;;12.13;8.10;;;6.80;99.90;;;;;;5051060;28;20170;-50
2023/03/09 10:14:20;;;;;;;10.57;7.00;;;6.90;99.90;;;;;;5051653;28;20301;-52
2023/03/09 10:16:50;;;;;;;10.10;7.40;;;6.80;99.90;;;;;;5050758;28;20228;-52
2023/03/09 10:19:20;;;;;;;13.15;8.15;;;6.90;99.90;;;;;;5051039;28;20532;-43
2023/03/09 10:21:58;;;;;;;10.32;7.45;;;6.80;99.90;;;;;;5050779;28;20239;-51
2023/03/09 10:24:26;;;;;;;13.10;8.25;;;6.70;99.90;;;;;;5051093;28;20175;-52
2023/03/09 10:26:58;;;;;;;13.30;8.98;;;6.60;99.90;;;;;;5050989;28;20174;-52
2023/03/09 10:29:48;;;;;;;13.38;9.27;;;6.80;99.90;;;;;;5051001;28;20162;-51
2023/03/09 10:32:20;;;;;;;15.38;9.55;;;7.00;99.90;;;;;;5051062;28;20289;-44
2023/03/09 10:34:59;;;;;;;13.48;9.48;;;6.90;99.90;;;;;;5051326;28;20173;-52
2023/03/09 10:37:31;;;;;;;17.88;10.48;;;6.90;99.90;;;;;;5050524;28;20243;-44
2023/03/09 10:40:06;;;;;;;16.95;10.05;;;6.80;99.90;;;;;;5050961;28;20175;-52
2023/03/09 10:42:36;;;;;;;15.32;9.98;;;6.70;99.90;;;;;;5051106;28;20169;-44
2023/03/09 10:45:18;;;;;;;18.40;10.80;;;6.80;99.90;;;;;;5050895;28;20178;-45
2023/03/09 10:47:57;;;;;;;14.40;9.70;;;7.00;99.90;;;;;;5049606;28;20205;-51
2023/03/09 10:50:26;;;;;;;16.63;10.55;;;7.00;99.90;;;;;;5050734;28;20653;-52
2023/03/09 10:52:54;;;;;;;16.08;10.40;;;7.10;99.90;;;;;;5049451;28;20625;-51
2023/03/09 10:55:25;;;;;;;19.13;11.48;;;7.00;99.90;;;;;;5050750;28;20614;-49
2023/03/09 10:58:00;;;;;;;20.35;12.10;;;7.00;99.90;;;;;;5050964;28;20175;-48
2023/03/09 11:00:26;;;;;;;16.98;10.75;;;7.10;99.90;;;;;;5051006;28;20158;-46
2023/03/09 11:02:59;;;;;;;17.95;11.70;;;7.40;99.90;;;;;;5051187;28;20264;-48
2023/03/09 11:05:28;;;;;;;16.13;9.95;;;7.60;99.90;;;;;;5051053;28;20207;-49
2023/03/09 11:07:58;;;;;;;15.20;9.80;;;7.60;99.90;;;;;;5035933;28;20676;-46
2023/03/09 11:10:25;;;;;;;18.00;10.63;;;7.60;99.90;;;;;;5051224;28;20171;-46
2023/03/09 11:12:52;;;;;;;16.48;9.88;;;7.60;99.90;;;;;;5050859;28;20198;-45
2023/03/09 11:15:18;;;;;;;16.55;10.32;;;7.70;99.90;;;;;;5050717;28;20170;-44
2023/03/09 11:17:45;;;;;;;16.65;10.98;;;7.80;99.90;;;;;;5050957;28;20177;-43
2023/03/09 11:20:28;;;;;;;17.17;10.52;;;7.80;99.90;;;;;;5050994;28;20248;-44
2023/03/09 11:23:02;;;;;;;16.90;11.23;;;7.90;99.90;;;;;;5051129;28;20232;-43
2023/03/09 11:25:57;;;;;;;16.33;10.82;;;7.90;99.90;;;;;;5050979;28;20170;-49
2023/03/09 11:29:02;;;;;;;17.85;11.57;;;7.80;99.90;;;;;;5050881;28;20167;-46
2023/03/09 11:31:36;;;;;;;19.02;10.55;;;7.80;99.90;;;;;;5036871;28;20190;-48
2023/03/09 11:34:04;;;;;;;18.60;9.88;;;7.70;99.90;;;;;;5053554;28;20206;-44
2023/03/09 11:36:53;;;;;;;15.45;10.02;;;7.60;99.90;;;;;;5054862;28;20178;-44
2023/03/09 11:39:26;;;;;;;18.23;10.18;;;7.80;99.90;;;;;;5053599;28;20179;-43
2023/03/09 11:41:54;;;;;;;17.13;10.27;;;7.60;99.90;;;;;;5054360;28;20163;-45
2023/03/09 11:44:31;;;;;;;17.60;10.45;;;7.60;99.90;;;;;;5053956;28;20178;-44
2023/03/09 11:47:10;;;;;;;19.02;11.68;;;7.70;99.90;;;;;;5053992;28;20162;-44
2023/03/09 11:49:36;;;;;;;17.92;10.45;;;7.70;99.90;;;;;;5053780;28;20702;-44
2023/03/09 11:52:04;;;;;;;16.50;11.30;;;7.90;99.90;;;;;;5053576;28;20642;-43
2023/03/09 11:54:35;;;;;;;37.92;20.77;;;7.70;99.90;;;;;;5053756;28;20190;-44
2023/03/09 11:57:07;;;;;;;19.88;12.55;;;7.80;99.90;;;;;;5053999;28;20170;-43
2023/03/09 12:00:00;;;;;;;18.05;10.90;;;7.80;99.90;;;;;;5053520;28;20236;-52
2023/03/09 12:02:41;;;;;;;18.65;11.63;;;7.80;99.90;;;;;;5053165;28;20562;-45
2023/03/09 12:05:12;;;;;;;22.95;14.15;;;7.80;99.90;;;;;;5053244;28;20638;-44
2023/03/09 12:07:49;;;;;;;18.13;11.00;;;7.70;99.90;;;;;;5053658;28;20197;-43
2023/03/09 12:10:26;;;;;;;20.50;11.07;;;7.70;99.90;;;;;;5053409;28;20194;-44
2023/03/09 12:13:31;;;;;;;15.75;10.50;;;7.60;99.90;;;;;;5053250;28;20301;-43
2023/03/09 12:16:11;;;;;;;18.20;11.50;;;7.60;99.90;;;;;;5052574;28;20187;-43
2023/03/09 12:18:40;;;;;;;21.50;11.23;;;7.70;99.90;;;;;;5053310;28;20599;-44
2023/03/09 12:21:09;;;;;;;20.48;11.35;;;7.80;99.90;;;;;;5053012;28;20202;-43
2023/03/09 12:23:35;;;;;;;21.30;11.60;;;7.90;99.90;;;;;;5053082;28;20188;-45
2023/03/09 12:26:04;;;;;;;18.45;12.00;;;8.10;99.90;;;;;;5053296;28;20712;-44
2023/03/09 12:28:30;;;;;;;17.67;11.23;;;8.20;99.90;;;;;;5053255;28;20181;-47
2023/03/09 12:30:57;;;;;;;17.10;10.93;;;8.20;99.90;;;;;;5052953;28;20668;-51
2023/03/09 12:33:41;;;;;;;19.38;11.82;;;8.10;99.90;;;;;;5053108;28;20205;-45
2023/03/09 12:36:26;;;;;;;19.63;10.98;;;8.10;99.90;;;;;;5052867;28;20616;-52
2023/03/09 12:39:22;;;;;;;15.73;11.05;;;8.10;99.90;;;;;;5052564;28;20190;-47
2023/03/09 12:42:25;;;;;;;19.27;12.38;;;8.00;99.90;;;;;;5052791;28;20171;-50
2023/03/09 12:44:51;;;;;;;26.80;16.10;;;7.80;99.90;;;;;;5052187;28;20170;-53
2023/03/09 12:47:24;;;;;;;23.33;15.38;;;7.70;99.90;;;;;;5052705;28;20174;-43